createdAt,value
2018-03-04T00:00:26.402Z,17.80
2018-03-04T00:02:52.978Z,17.77
2018-03-04T00:05:19.556Z,16.50
2018-03-04T00:07:46.138Z,18.08
2018-03-04T00:10:12.722Z,17.35
2018-03-04T00:12:39.296Z,17.33
2018-03-04T00:15:05.894Z,17.40
2018-03-04T00:17:32.468Z,16.67
2018-03-04T00:19:59.076Z,18.00
2018-03-04T00:22:31.813Z,18.80
2018-03-04T00:24:58.391Z,16.45
2018-03-04T00:27:24.972Z,17.70
2018-03-04T00:29:51.552Z,17.90
2018-03-04T00:32:18.176Z,17.85
2018-03-04T00:34:44.739Z,17.52
2018-03-04T00:37:11.308Z,16.73
2018-03-04T00:39:37.988Z,18.12
2018-03-04T00:42:04.567Z,17.00
2018-03-04T00:44:31.155Z,17.25
2018-03-04T00:46:57.764Z,16.00
2018-03-04T00:49:24.354Z,15.70
2018-03-04T00:51:50.931Z,17.05
2018-03-04T00:54:17.512Z,15.70
2018-03-04T00:56:44.100Z,16.65
2018-03-04T00:59:10.682Z,17.42
2018-03-04T01:01:37.264Z,15.55
2018-03-04T01:04:03.830Z,16.20
2018-03-04T01:06:30.418Z,18.15
2018-03-04T01:08:57.004Z,19.67
2018-03-04T01:11:23.689Z,16.80
2018-03-04T01:13:50.267Z,16.95
2018-03-04T01:16:16.847Z,19.10
2018-03-04T01:18:43.732Z,18.10
2018-03-04T01:21:10.316Z,17.83
2018-03-04T01:23:36.902Z,17.08
2018-03-04T01:26:03.504Z,17.10
2018-03-04T01:28:30.094Z,14.95
2018-03-04T01:30:56.666Z,15.93
2018-03-04T01:33:23.556Z,16.42
2018-03-04T01:35:50.136Z,19.55
2018-03-04T01:38:16.714Z,16.90
2018-03-04T01:40:43.604Z,18.62
2018-03-04T01:43:10.187Z,16.15
2018-03-04T01:45:36.772Z,17.15
2018-03-04T01:48:03.359Z,17.85
2018-03-04T01:50:30.804Z,16.35
2018-03-04T01:52:57.376Z,17.02
2018-03-04T01:55:23.967Z,17.17
2018-03-04T01:57:50.549Z,18.40
2018-03-04T02:00:17.122Z,16.58
2018-03-04T02:02:43.734Z,17.77
2018-03-04T02:05:10.305Z,18.20
2018-03-04T02:07:36.887Z,16.98
2018-03-04T02:10:03.801Z,18.37
2018-03-04T02:12:30.382Z,17.33
2018-03-04T02:14:56.956Z,18.35
2018-03-04T02:17:23.543Z,19.17
2018-03-04T02:19:50.119Z,17.37
2018-03-04T02:22:16.703Z,17.20
2018-03-04T02:24:43.285Z,20.35
2018-03-04T02:27:09.859Z,18.00
2018-03-04T02:29:36.462Z,18.73
2018-03-04T02:32:03.032Z,21.17
2018-03-04T02:34:29.619Z,17.48
2018-03-04T02:36:56.204Z,19.92
2018-03-04T02:39:22.773Z,20.88
2018-03-04T02:41:49.530Z,19.23
2018-03-04T02:44:16.105Z,20.12
2018-03-04T02:46:42.686Z,22.00
2018-03-04T02:49:09.289Z,17.90
2018-03-04T02:51:35.863Z,21.20
2018-03-04T02:54:02.447Z,18.08
2018-03-04T02:56:29.269Z,20.50
2018-03-04T02:58:55.844Z,19.10
2018-03-04T03:01:22.425Z,19.23
2018-03-04T03:03:49.012Z,19.45
2018-03-04T03:06:15.891Z,22.83
2018-03-04T03:08:42.480Z,19.90
2018-03-04T03:11:09.061Z,24.10
2018-03-04T03:13:35.643Z,22.60
2018-03-04T03:16:02.235Z,21.00
2018-03-04T03:18:28.808Z,22.13
2018-03-04T03:20:55.399Z,20.88
2018-03-04T03:23:21.979Z,21.52
2018-03-04T03:25:48.559Z,21.33
2018-03-04T03:28:15.436Z,23.48
2018-03-04T03:30:42.031Z,23.08
2018-03-04T03:33:08.607Z,17.70
2018-03-04T03:35:35.219Z,21.23
2018-03-04T03:38:01.801Z,22.95
2018-03-04T03:40:28.379Z,21.98
2018-03-04T03:42:55.068Z,21.45
2018-03-04T03:45:21.664Z,22.52
2018-03-04T03:47:48.240Z,20.23
2018-03-04T03:50:15.108Z,18.92
2018-03-04T03:52:41.688Z,22.25
2018-03-04T03:55:08.267Z,22.30
2018-03-04T03:57:35.167Z,22.75
2018-03-04T04:00:01.752Z,18.90
2018-03-04T04:02:28.331Z,21.77
2018-03-04T04:04:54.924Z,23.73
2018-03-04T04:07:21.499Z,21.30
2018-03-04T04:09:48.080Z,24.08
2018-03-04T04:12:14.699Z,21.58
2018-03-04T04:14:41.284Z,21.40
2018-03-04T04:17:07.855Z,21.10
2018-03-04T04:19:35.384Z,21.08
2018-03-04T04:22:01.960Z,22.02
2018-03-04T04:24:28.540Z,22.62
2018-03-04T04:26:55.124Z,19.23
2018-03-04T04:29:21.703Z,20.25
2018-03-04T04:31:48.338Z,21.08
2018-03-04T04:34:15.198Z,22.08
2018-03-04T04:36:41.770Z,20.27
2018-03-04T04:39:08.347Z,23.23
2018-03-04T04:41:34.952Z,22.98
2018-03-04T04:44:01.544Z,22.62
2018-03-04T04:46:28.120Z,22.87
2018-03-04T04:48:54.711Z,24.45
2018-03-04T04:51:21.291Z,20.98
2018-03-04T04:53:47.866Z,24.20
2018-03-04T04:56:14.460Z,21.70
2018-03-04T04:58:41.047Z,23.05
2018-03-04T05:01:07.625Z,23.38
2018-03-04T05:03:34.206Z,22.67
2018-03-04T05:06:00.803Z,23.75
2018-03-04T05:08:27.385Z,21.23
2018-03-04T05:10:53.969Z,22.08
2018-03-04T05:13:20.544Z,25.33
2018-03-04T05:15:47.182Z,23.10
2018-03-04T05:18:13.770Z,25.62
2018-03-04T05:20:40.346Z,22.70
2018-03-04T05:23:06.960Z,23.67
2018-03-04T05:25:33.530Z,22.25
2018-03-04T05:28:00.121Z,23.90
2018-03-04T05:30:26.724Z,23.17
2018-03-04T05:32:53.297Z,21.37
2018-03-04T05:35:20.193Z,21.08
2018-03-04T05:37:46.792Z,22.00
2018-03-04T05:40:13.378Z,22.83
2018-03-04T05:42:39.947Z,23.87
2018-03-04T05:45:06.532Z,21.60
2018-03-04T05:47:33.102Z,22.02
2018-03-04T05:49:59.700Z,21.35
2018-03-04T05:52:26.290Z,22.87
2018-03-04T05:54:52.868Z,22.95
2018-03-04T05:57:19.447Z,23.55
2018-03-04T05:59:46.354Z,20.85
2018-03-04T06:02:12.927Z,24.37
2018-03-04T06:04:39.516Z,22.77
2018-03-04T06:07:06.114Z,23.45
2018-03-04T06:09:32.688Z,23.83
2018-03-04T06:11:59.270Z,22.73
2018-03-04T06:14:26.171Z,22.10
2018-03-04T06:16:52.742Z,23.73
2018-03-04T06:19:19.327Z,20.77
2018-03-04T06:21:46.183Z,21.50
2018-03-04T06:24:12.755Z,23.20
2018-03-04T06:26:39.343Z,23.00
2018-03-04T06:29:05.934Z,22.37
2018-03-04T06:31:32.514Z,24.50
2018-03-04T06:33:59.099Z,20.12
2018-03-04T06:36:25.695Z,21.25
2018-03-04T06:38:52.266Z,23.95
2018-03-04T06:41:18.859Z,22.05
2018-03-04T06:43:45.472Z,26.62
2018-03-04T06:46:12.052Z,21.90
2018-03-04T06:48:38.698Z,26.30
2018-03-04T06:51:05.222Z,24.10
2018-03-04T06:53:31.826Z,24.42
2018-03-04T06:55:58.412Z,23.90
2018-03-04T06:58:24.996Z,23.02
2018-03-04T07:00:51.572Z,24.48
2018-03-04T07:03:18.372Z,21.92
2018-03-04T07:05:44.951Z,24.80
2018-03-04T07:08:11.540Z,28.58
2018-03-04T07:10:38.138Z,26.15
2018-03-04T07:13:04.727Z,24.77
2018-03-04T07:15:31.304Z,23.40
2018-03-04T07:17:57.915Z,25.00
2018-03-04T07:20:24.499Z,23.40
2018-03-04T07:22:51.075Z,26.92
2018-03-04T07:25:17.668Z,28.23
2018-03-04T07:27:44.260Z,24.90
2018-03-04T07:30:10.839Z,24.37
2018-03-04T07:32:37.427Z,22.95
2018-03-04T07:35:04.065Z,23.60
2018-03-04T07:37:30.603Z,24.77
2018-03-04T07:39:57.205Z,25.70
2018-03-04T07:42:23.783Z,22.65
2018-03-04T07:44:50.368Z,20.50
2018-03-04T07:47:17.405Z,26.65
2018-03-04T07:49:43.988Z,25.42
2018-03-04T07:52:10.571Z,28.30
2018-03-04T07:54:37.195Z,23.40
2018-03-04T07:57:03.767Z,28.02
2018-03-04T07:59:30.366Z,24.37
2018-03-04T08:01:57.331Z,23.48
2018-03-04T08:04:23.915Z,27.13
2018-03-04T08:06:50.504Z,22.33
2018-03-04T08:09:17.096Z,25.35
2018-03-04T08:11:43.685Z,25.20
2018-03-04T08:14:10.264Z,27.13
2018-03-04T08:16:36.856Z,24.92
2018-03-04T08:19:03.460Z,24.45
2018-03-04T08:21:30.251Z,25.12
2018-03-04T08:23:56.835Z,28.08
2018-03-04T08:26:29.186Z,25.58
2018-03-04T08:28:55.794Z,25.17
2018-03-04T08:31:22.368Z,25.92
2018-03-04T08:33:48.950Z,24.05
2018-03-04T08:36:15.548Z,27.13
2018-03-04T08:38:42.131Z,26.77
2018-03-04T08:41:08.711Z,25.98
2018-03-04T08:43:35.300Z,26.12
2018-03-04T08:46:01.888Z,26.35
2018-03-04T08:48:28.458Z,28.85
2018-03-04T08:50:55.279Z,28.77
2018-03-04T08:53:21.876Z,27.15
2018-03-04T08:55:48.447Z,24.65
2018-03-04T08:58:15.056Z,28.90
2018-03-04T09:00:41.646Z,29.80
2018-03-04T09:03:08.230Z,25.40
2018-03-04T09:05:34.994Z,26.30
2018-03-04T09:08:01.563Z,27.25
2018-03-04T09:10:28.207Z,27.75
2018-03-04T09:12:54.807Z,28.60
2018-03-04T09:15:21.409Z,28.42
2018-03-04T09:17:47.991Z,26.45
2018-03-04T09:20:14.563Z,28.58
2018-03-04T09:22:41.142Z,25.70
2018-03-04T09:25:07.720Z,28.33
2018-03-04T09:27:34.299Z,28.35
2018-03-04T09:30:00.883Z,28.87
2018-03-04T09:32:27.490Z,32.08
2018-03-04T09:34:54.071Z,29.20
2018-03-04T09:37:20.647Z,29.87
2018-03-04T09:39:47.596Z,30.30
2018-03-04T09:42:14.176Z,30.70
2018-03-04T09:44:40.749Z,29.83
2018-03-04T09:47:07.351Z,30.12
2018-03-04T09:49:33.923Z,28.58
2018-03-04T09:52:00.500Z,28.87
2018-03-04T09:54:27.108Z,29.98
2018-03-04T09:56:53.702Z,28.52
2018-03-04T09:59:20.323Z,29.75
2018-03-04T10:01:46.943Z,30.23
2018-03-04T10:04:13.527Z,35.67
2018-03-04T10:06:40.124Z,27.50
2018-03-04T10:09:06.733Z,31.87
2018-03-04T10:11:33.439Z,30.77
2018-03-04T10:14:00.052Z,31.10
2018-03-04T10:16:26.629Z,30.25
2018-03-04T10:18:53.215Z,31.92
2018-03-04T10:21:19.801Z,30.40
2018-03-04T10:23:46.396Z,28.52
2018-03-04T10:26:12.978Z,29.92
2018-03-04T10:28:39.556Z,31.10
2018-03-04T10:31:06.163Z,33.20
2018-03-04T10:33:32.722Z,40.37
2018-03-04T10:35:59.303Z,35.95
2018-03-04T10:38:25.912Z,33.45
2018-03-04T10:40:52.514Z,32.63
2018-03-04T10:43:19.107Z,31.00
2018-03-04T10:45:45.691Z,31.55
2018-03-04T10:48:12.295Z,32.65
2018-03-04T10:50:38.873Z,32.90
2018-03-04T10:53:05.451Z,34.80
2018-03-04T10:55:32.044Z,31.10
2018-03-04T10:57:58.624Z,35.00
2018-03-04T11:00:25.207Z,37.55
2018-03-04T11:02:51.812Z,34.65
2018-03-04T11:05:18.390Z,34.45
2018-03-04T11:07:44.972Z,36.17
2018-03-04T11:10:11.560Z,33.40
2018-03-04T11:12:38.423Z,32.75
2018-03-04T11:15:04.995Z,35.00
2018-03-04T11:17:31.584Z,33.85
2018-03-04T11:19:58.182Z,34.72
2018-03-04T11:22:24.763Z,41.55
2018-03-04T11:24:51.347Z,35.17
2018-03-04T11:27:18.124Z,31.83
2018-03-04T11:29:44.700Z,34.58
2018-03-04T11:32:11.421Z,35.67
2018-03-04T11:34:37.944Z,35.22
2018-03-04T11:37:04.556Z,36.08
2018-03-04T11:39:31.139Z,34.15
2018-03-04T11:41:57.728Z,35.70
2018-03-04T11:44:24.407Z,34.17
2018-03-04T11:46:50.994Z,35.33
2018-03-04T11:49:17.592Z,35.72
2018-03-04T11:51:44.193Z,36.25
2018-03-04T11:54:10.772Z,37.42
2018-03-04T11:56:37.355Z,38.72
2018-03-04T11:59:03.961Z,38.60
2018-03-04T12:01:30.539Z,35.90
2018-03-04T12:03:57.169Z,38.17
2018-03-04T12:06:23.715Z,35.38
2018-03-04T12:08:50.295Z,37.03
2018-03-04T12:11:16.896Z,36.85
2018-03-04T12:13:43.479Z,34.45
2018-03-04T12:16:10.059Z,37.30
2018-03-04T12:18:36.664Z,37.28
2018-03-04T12:21:03.242Z,35.92
2018-03-04T12:23:29.819Z,37.05
2018-03-04T12:25:56.394Z,37.50
2018-03-04T12:28:22.984Z,34.38
2018-03-04T12:30:49.871Z,38.42
2018-03-04T12:33:16.412Z,34.72
2018-03-04T12:35:42.991Z,37.97
2018-03-04T12:38:09.588Z,36.95
2018-03-04T12:40:36.160Z,36.63
2018-03-04T12:43:02.743Z,36.17
2018-03-04T12:45:29.339Z,38.63
2018-03-04T12:47:55.923Z,35.20
2018-03-04T12:50:22.507Z,33.80
2018-03-04T12:52:49.463Z,35.00
2018-03-04T12:55:16.048Z,38.47
2018-03-04T12:57:42.636Z,39.70
2018-03-04T13:00:09.218Z,38.58
2018-03-04T13:02:35.815Z,37.63
2018-03-04T13:05:02.400Z,38.80
2018-03-04T13:07:28.979Z,39.10
2018-03-04T13:09:55.580Z,37.13
2018-03-04T13:12:22.160Z,39.65
2018-03-04T13:14:48.749Z,38.45
2018-03-04T13:17:15.353Z,38.42
2018-03-04T13:19:41.940Z,37.53
2018-03-04T13:22:08.533Z,37.88
2018-03-04T13:24:35.136Z,36.67
2018-03-04T13:27:01.838Z,37.50
2018-03-04T13:29:28.395Z,38.60
2018-03-04T13:31:55.004Z,38.67
2018-03-04T13:34:21.685Z,42.97
2018-03-04T13:36:48.207Z,37.83
2018-03-04T13:39:15.048Z,42.43
2018-03-04T13:41:41.633Z,40.77
2018-03-04T13:44:08.216Z,41.40
2018-03-04T13:46:34.876Z,38.17
2018-03-04T13:49:01.399Z,40.40
2018-03-04T13:51:27.984Z,40.77
2018-03-04T13:53:54.582Z,38.43
2018-03-04T13:56:21.248Z,39.93
2018-03-04T13:58:47.816Z,38.70
2018-03-04T14:01:14.408Z,39.17
2018-03-04T14:03:40.987Z,39.17
2018-03-04T14:06:08.596Z,40.67
2018-03-04T14:08:35.179Z,39.13
2018-03-04T14:11:01.767Z,40.00
2018-03-04T14:13:28.365Z,40.37
2018-03-04T14:15:54.947Z,40.13
2018-03-04T14:18:21.529Z,40.50
2018-03-04T14:20:48.185Z,40.77
2018-03-04T14:23:14.740Z,39.90
2018-03-04T14:25:41.319Z,38.67
2018-03-04T14:28:07.934Z,39.05
2018-03-04T14:30:34.515Z,37.20
2018-03-04T14:33:01.104Z,37.13
2018-03-04T14:35:27.716Z,36.65
2018-03-04T14:37:54.297Z,38.20
2018-03-04T14:40:20.871Z,39.47
2018-03-04T14:42:47.490Z,36.03
2018-03-04T14:45:14.067Z,37.47
2018-03-04T14:47:40.651Z,35.88
2018-03-04T14:50:07.523Z,38.15
2018-03-04T14:52:34.108Z,36.92
2018-03-04T14:55:00.688Z,38.88
2018-03-04T14:57:27.272Z,37.92
2018-03-04T14:59:53.847Z,38.65
2018-03-04T15:02:20.446Z,38.10
2018-03-04T15:04:47.031Z,35.75
2018-03-04T15:07:13.609Z,36.22
2018-03-04T15:09:40.188Z,35.83
2018-03-04T15:12:06.755Z,40.15
2018-03-04T15:14:33.352Z,37.55
2018-03-04T15:16:59.933Z,38.85
2018-03-04T15:19:26.506Z,38.28
2018-03-04T15:21:53.139Z,34.42
2018-03-04T15:24:19.711Z,35.05
2018-03-04T15:26:46.292Z,37.63
2018-03-04T15:29:12.889Z,36.63
2018-03-04T15:31:39.473Z,35.42
2018-03-04T15:34:06.107Z,36.53
2018-03-04T15:36:32.698Z,38.70
2018-03-04T15:38:59.284Z,38.40
2018-03-04T15:41:25.868Z,36.85
2018-03-04T15:43:52.470Z,36.33
2018-03-04T15:46:19.044Z,36.75
2018-03-04T15:48:45.627Z,35.50
2018-03-04T15:51:12.324Z,38.80
2018-03-04T15:53:38.924Z,37.58
2018-03-04T15:56:11.186Z,37.15
2018-03-04T15:58:38.030Z,38.58
2018-03-04T16:01:04.664Z,37.60
2018-03-04T16:03:31.252Z,39.50
2018-03-04T16:05:57.837Z,36.85
2018-03-04T16:08:24.532Z,37.95
2018-03-04T16:10:51.124Z,38.13
2018-03-04T16:13:17.752Z,36.22
2018-03-04T16:15:44.348Z,38.45
2018-03-04T16:18:10.932Z,38.08
2018-03-04T16:20:37.518Z,37.20
2018-03-04T16:23:04.100Z,39.17
2018-03-04T16:25:30.695Z,38.22
2018-03-04T16:27:57.521Z,37.40
2018-03-04T16:30:24.212Z,37.20
2018-03-04T16:32:50.780Z,37.35
2018-03-04T16:35:17.362Z,37.95
2018-03-04T16:37:43.952Z,36.75
2018-03-04T16:40:10.531Z,38.47
2018-03-04T16:42:37.158Z,39.63
2018-03-04T16:45:03.823Z,37.28
2018-03-04T16:47:30.401Z,39.67
2018-03-04T16:49:56.980Z,38.28
2018-03-04T16:52:23.615Z,38.05
2018-03-04T16:54:50.148Z,38.55
2018-03-04T16:57:16.732Z,37.45
2018-03-04T16:59:43.588Z,39.38
2018-03-04T17:02:10.367Z,38.58
2018-03-04T17:04:37.033Z,38.08
2018-03-04T17:07:03.564Z,36.83
2018-03-04T17:09:30.200Z,37.92
2018-03-04T17:11:57.583Z,37.53
2018-03-04T17:14:24.855Z,39.75
2018-03-04T17:16:51.449Z,38.60
2018-03-04T17:19:18.377Z,38.03
2018-03-04T17:21:44.963Z,38.13
2018-03-04T17:24:11.544Z,37.30
2018-03-04T17:26:38.219Z,40.03
2018-03-04T17:29:04.775Z,38.13
2018-03-04T17:31:31.388Z,40.63
2018-03-04T17:33:57.968Z,38.75
2018-03-04T17:36:24.574Z,37.25
2018-03-04T17:38:51.170Z,40.22
2018-03-04T17:41:17.752Z,34.25
2018-03-04T17:43:44.538Z,40.65
2018-03-04T17:46:11.115Z,38.08
2018-03-04T17:48:37.699Z,41.17
2018-03-04T17:51:04.574Z,37.25
2018-03-04T17:53:31.164Z,42.15
2018-03-04T17:55:57.746Z,43.42
2018-03-04T17:58:24.387Z,38.15
2018-03-04T18:00:50.974Z,38.90
2018-03-04T18:03:17.571Z,39.22
2018-03-04T18:05:44.163Z,39.63
2018-03-04T18:08:10.770Z,38.15
2018-03-04T18:10:37.647Z,36.58
2018-03-04T18:13:04.341Z,36.65
2018-03-04T18:15:31.094Z,38.95
2018-03-04T18:17:57.610Z,37.05
2018-03-04T18:20:24.233Z,37.63
2018-03-04T18:22:51.153Z,39.28
2018-03-04T18:25:17.739Z,37.17
2018-03-04T18:27:44.323Z,39.75
2018-03-04T18:30:10.911Z,37.45
2018-03-04T18:32:37.591Z,39.92
2018-03-04T18:35:04.193Z,36.90
2018-03-04T18:37:30.771Z,36.85
2018-03-04T18:39:57.370Z,38.40
2018-03-04T18:42:24.005Z,38.60
2018-03-04T18:44:51.499Z,37.80
2018-03-04T18:47:18.165Z,37.35
2018-03-04T18:49:44.778Z,36.80
2018-03-04T18:52:11.832Z,38.40
2018-03-04T18:54:38.749Z,36.08
2018-03-04T18:57:05.385Z,37.88
2018-03-04T18:59:31.994Z,40.55
2018-03-04T19:01:59.345Z,39.05
2018-03-04T19:04:26.012Z,36.70
2018-03-04T19:06:52.581Z,36.15
2018-03-04T19:09:19.262Z,37.95
2018-03-04T19:11:45.845Z,37.88
2018-03-04T19:14:12.570Z,39.20
2018-03-04T19:16:39.162Z,36.08
2018-03-04T19:19:05.779Z,40.85
2018-03-04T19:21:32.364Z,43.28
2018-03-04T19:23:58.943Z,47.50
2018-03-04T19:26:25.707Z,45.28
2018-03-04T19:28:52.292Z,45.92
2018-03-04T19:31:18.876Z,40.45
2018-03-04T19:33:45.539Z,41.53
2018-03-04T19:36:12.140Z,40.85
2018-03-04T19:38:38.728Z,36.28
2018-03-04T19:41:05.313Z,37.28
2018-03-04T19:43:31.954Z,36.10
2018-03-04T19:45:58.503Z,37.63
2018-03-04T19:48:25.087Z,38.45
2018-03-04T19:50:51.975Z,37.10
2018-03-04T19:53:18.575Z,36.92
2018-03-04T19:55:45.460Z,38.03
2018-03-04T19:58:12.040Z,35.67
2018-03-04T20:00:38.628Z,36.70
2018-03-04T20:03:05.238Z,37.13
2018-03-04T20:05:31.815Z,35.58
2018-03-04T20:07:58.516Z,37.47
2018-03-04T20:10:25.109Z,40.30
2018-03-04T20:12:51.684Z,37.50
2018-03-04T20:15:18.373Z,37.33
2018-03-04T20:17:44.968Z,37.72
2018-03-04T20:20:11.555Z,38.70
2018-03-04T20:22:38.164Z,36.83
2018-03-04T20:25:04.770Z,36.90
2018-03-04T20:27:31.341Z,36.22
2018-03-04T20:29:57.929Z,36.53
2018-03-04T20:32:24.503Z,36.70
2018-03-04T20:34:51.097Z,35.92
2018-03-04T20:37:17.682Z,36.03
2018-03-04T20:39:44.275Z,34.28
2018-03-04T20:42:10.869Z,35.40
2018-03-04T20:44:37.464Z,37.75
2018-03-04T20:47:04.064Z,34.92
2018-03-04T20:49:30.936Z,35.25
2018-03-04T20:51:57.520Z,38.08
2018-03-04T20:54:24.113Z,36.70
2018-03-04T20:56:50.973Z,38.03
2018-03-04T20:59:17.559Z,35.85
2018-03-04T21:01:44.147Z,37.08
2018-03-04T21:04:10.833Z,35.83
2018-03-04T21:06:37.427Z,37.17
2018-03-04T21:09:04.015Z,36.22
2018-03-04T21:11:30.599Z,38.05
2018-03-04T21:13:57.206Z,35.13
2018-03-04T21:16:23.795Z,36.85
2018-03-04T21:18:50.384Z,38.20
2018-03-04T21:21:16.993Z,37.17
2018-03-04T21:23:43.570Z,35.58
2018-03-04T21:26:10.160Z,35.35
2018-03-04T21:28:37.015Z,37.80
2018-03-04T21:31:03.612Z,34.17
2018-03-04T21:33:30.194Z,36.05
2018-03-04T21:35:56.809Z,34.22
2018-03-04T21:38:23.411Z,34.97
2018-03-04T21:40:50.389Z,36.88
2018-03-04T21:43:16.974Z,37.08
2018-03-04T21:45:43.572Z,37.58
2018-03-04T21:48:10.173Z,36.22
2018-03-04T21:50:37.035Z,35.10
2018-03-04T21:53:03.628Z,35.35
2018-03-04T21:55:30.213Z,36.08
2018-03-04T21:57:56.815Z,39.25
2018-03-04T22:00:23.796Z,37.38
2018-03-04T22:02:50.415Z,34.17
2018-03-04T22:05:16.996Z,36.40
2018-03-04T22:07:43.604Z,37.25
2018-03-04T22:10:10.179Z,36.80
2018-03-04T22:12:36.776Z,35.63
2018-03-04T22:15:03.460Z,35.10
2018-03-04T22:17:30.056Z,37.00
2018-03-04T22:19:56.649Z,36.75
2018-03-04T22:22:23.240Z,36.83
2018-03-04T22:24:49.823Z,45.97
2018-03-04T22:27:16.404Z,37.85
2018-03-04T22:29:42.983Z,38.25
2018-03-04T22:32:09.565Z,36.47
2018-03-04T22:34:36.480Z,34.95
2018-03-04T22:37:03.064Z,37.33
2018-03-04T22:39:29.647Z,34.97
2018-03-04T22:41:56.251Z,37.60
2018-03-04T22:44:22.828Z,35.90
2018-03-04T22:46:49.410Z,33.70
2018-03-04T22:49:16.012Z,35.78
2018-03-04T22:51:42.583Z,38.65
2018-03-04T22:54:09.162Z,36.33
2018-03-04T22:56:35.784Z,38.15
2018-03-04T22:59:02.363Z,36.65
2018-03-04T23:04:02.072Z,35.00
2018-03-04T23:06:28.768Z,35.75
2018-03-04T23:08:55.351Z,35.75
2018-03-04T23:11:21.933Z,35.25
2018-03-04T23:13:48.548Z,35.70
2018-03-04T23:16:15.128Z,36.50
2018-03-04T23:18:43.354Z,35.58
2018-03-04T23:21:10.059Z,36.00
2018-03-04T23:23:36.642Z,36.47
2018-03-04T23:26:03.214Z,37.38
2018-03-04T23:28:29.818Z,34.90
2018-03-04T23:30:56.391Z,33.97
2018-03-04T23:33:22.967Z,36.97
2018-03-04T23:35:49.571Z,38.65
2018-03-04T23:38:16.159Z,35.42
2018-03-04T23:40:42.739Z,34.22
2018-03-04T23:43:09.349Z,33.90
2018-03-04T23:45:35.919Z,34.40
2018-03-04T23:48:02.502Z,36.10
2018-03-04T23:50:29.084Z,36.38
2018-03-04T23:52:55.670Z,34.45
2018-03-04T23:55:22.248Z,35.83
2018-03-04T23:57:48.852Z,36.25
